EWG7DB LIPZ-EDDH
Flight info
| Callsign | EWG7DB |
|---|---|
| Flight time | 1h 23m |
| Altitude | 38000 |
| Route | ROKIB DCT BRENO DCT KONIN DCT EXITI DCT ABGUS DCT DIRBO/N0354F230 T902 RARUP RARUP6A |
| Aircraft | A320/M-SDE3FGHIRWY/LB1 |
Departure
| Time | 2026-04-20 18:09 |
|---|---|
| Airport | Venice Marco Polo Airport (LIPZ) |
Arrival
| Time | 2026-04-20 19:32 |
|---|---|
| Airport | Hamburg Helmut Schmidt Airport (EDDH) |
| Time | Latitude | Longitude | Altitude | Speed | Heading |
|---|---|---|---|---|---|
| 2026-04-20 17:59 | 45.50804 | 12.33910 | 16 ft | 0 kts | 221° |
| 2026-04-20 18:01 | 45.50806 | 12.33912 | 16 ft | 2 kts | 220° |
| 2026-04-20 18:01 | 45.50827 | 12.33934 | 16 ft | 4 kts | 203° |
| 2026-04-20 18:02 | 45.50852 | 12.33942 | 16 ft | 4 kts | 162° |
| 2026-04-20 18:02 | 45.50865 | 12.33932 | 18 ft | 1 kts | 132° |
| 2026-04-20 18:02 | 45.50866 | 12.33929 | 18 ft | 0 kts | 132° |
| 2026-04-20 18:04 | 45.50859 | 12.33941 | 16 ft | 9 kts | 132° |
| 2026-04-20 18:04 | 45.50791 | 12.34058 | 16 ft | 18 kts | 117° |
| 2026-04-20 18:05 | 45.50627 | 12.34333 | 16 ft | 13 kts | 171° |
| 2026-04-20 18:05 | 45.50515 | 12.34339 | 16 ft | 24 kts | 178° |
| 2026-04-20 18:05 | 45.50322 | 12.34353 | 16 ft | 29 kts | 177° |
| 2026-04-20 18:06 | 45.50133 | 12.34345 | 15 ft | 22 kts | 210° |
| 2026-04-20 18:06 | 45.50046 | 12.34165 | 15 ft | 24 kts | 266° |
| 2026-04-20 18:06 | 45.49988 | 12.33959 | 16 ft | 24 kts | 225° |
| 2026-04-20 18:06 | 45.49857 | 12.33791 | 16 ft | 26 kts | 221° |
| 2026-04-20 18:07 | 45.49707 | 12.33629 | 16 ft | 28 kts | 208° |
| 2026-04-20 18:07 | 45.49579 | 12.33511 | 16 ft | 15 kts | 176° |
| 2026-04-20 18:07 | 45.49502 | 12.33610 | 16 ft | 16 kts | 132° |
| 2026-04-20 18:07 | 45.49423 | 12.33739 | 15 ft | 7 kts | 124° |
| 2026-04-20 18:08 | 45.49431 | 12.33797 | 16 ft | 6 kts | 45° |
| 2026-04-20 18:08 | 45.49480 | 12.33860 | 14 ft | 22 kts | 42° |
| 2026-04-20 18:08 | 45.49780 | 12.34247 | 13 ft | 95 kts | 42° |
| 2026-04-20 18:08 | 45.50435 | 12.35090 | 16 ft | 156 kts | 41° |
| 2026-04-20 18:09 | 45.51256 | 12.36158 | 565 ft | 163 kts | 43° |
| 2026-04-20 18:09 | 45.52081 | 12.37281 | 1332 ft | 164 kts | 45° |
| 2026-04-20 18:09 | 45.52907 | 12.38423 | 2119 ft | 166 kts | 45° |
| 2026-04-20 18:09 | 45.53526 | 12.39819 | 2798 ft | 170 kts | 71° |
| 2026-04-20 18:10 | 45.53629 | 12.41516 | 3403 ft | 180 kts | 96° |
| 2026-04-20 18:10 | 45.53410 | 12.43389 | 3793 ft | 202 kts | 98° |
| 2026-04-20 18:10 | 45.53173 | 12.45419 | 4294 ft | 215 kts | 99° |
| 2026-04-20 18:10 | 45.52942 | 12.47577 | 4905 ft | 224 kts | 98° |
| 2026-04-20 18:11 | 45.52680 | 12.49780 | 5604 ft | 227 kts | 107° |
| 2026-04-20 18:11 | 45.51870 | 12.51704 | 6267 ft | 229 kts | 140° |
| 2026-04-20 18:11 | 45.50485 | 12.52767 | 6898 ft | 227 kts | 171° |
| 2026-04-20 18:11 | 45.48923 | 12.52726 | 7494 ft | 229 kts | 198° |
| 2026-04-20 18:12 | 45.47500 | 12.51578 | 7820 ft | 247 kts | 229° |
| 2026-04-20 18:12 | 45.46663 | 12.49376 | 8293 ft | 263 kts | 261° |
| 2026-04-20 18:12 | 45.46819 | 12.46774 | 9086 ft | 271 kts | 292° |
| 2026-04-20 18:12 | 45.47908 | 12.44569 | 9976 ft | 276 kts | 310° |
| 2026-04-20 18:13 | 45.49218 | 12.42474 | 10428 ft | 298 kts | 310° |
| 2026-04-20 18:13 | 45.50630 | 12.40188 | 10957 ft | 312 kts | 310° |
| 2026-04-20 18:13 | 45.52080 | 12.37827 | 11769 ft | 317 kts | 310° |
| 2026-04-20 18:13 | 45.53539 | 12.35441 | 12638 ft | 321 kts | 310° |
| 2026-04-20 18:14 | 45.55016 | 12.33024 | 13493 ft | 324 kts | 310° |
| 2026-04-20 18:14 | 45.56502 | 12.30590 | 14287 ft | 327 kts | 309° |
| 2026-04-20 18:14 | 45.58003 | 12.28132 | 15075 ft | 328 kts | 309° |
| 2026-04-20 18:14 | 45.59510 | 12.25656 | 15868 ft | 330 kts | 309° |
| 2026-04-20 18:15 | 45.61017 | 12.23173 | 16661 ft | 332 kts | 309° |
| 2026-04-20 18:15 | 45.62543 | 12.20663 | 17452 ft | 333 kts | 309° |
| 2026-04-20 18:15 | 45.64070 | 12.18156 | 18222 ft | 335 kts | 309° |
| 2026-04-20 18:15 | 45.65604 | 12.15632 | 18876 ft | 337 kts | 309° |
| 2026-04-20 18:16 | 45.67148 | 12.13093 | 19540 ft | 339 kts | 308° |
| 2026-04-20 18:16 | 45.68702 | 12.10533 | 20206 ft | 341 kts | 308° |
| 2026-04-20 18:16 | 45.70285 | 12.07916 | 20473 ft | 356 kts | 308° |
| 2026-04-20 18:16 | 45.71946 | 12.05165 | 20591 ft | 372 kts | 308° |
| 2026-04-20 18:17 | 45.73672 | 12.02303 | 20727 ft | 386 kts | 308° |
| 2026-04-20 18:17 | 45.75459 | 11.99340 | 20856 ft | 398 kts | 308° |
| 2026-04-20 18:17 | 45.77292 | 11.96302 | 21065 ft | 406 kts | 308° |
| 2026-04-20 18:17 | 45.79152 | 11.93228 | 21418 ft | 409 kts | 308° |
| 2026-04-20 18:18 | 45.81025 | 11.90133 | 21805 ft | 411 kts | 308° |
| 2026-04-20 18:18 | 45.82898 | 11.87023 | 22185 ft | 413 kts | 308° |
| 2026-04-20 18:18 | 45.84781 | 11.83886 | 22554 ft | 415 kts | 308° |
| 2026-04-20 18:18 | 45.86647 | 11.80777 | 22896 ft | 416 kts | 308° |
| 2026-04-20 18:19 | 45.88549 | 11.77607 | 23268 ft | 418 kts | 308° |
| 2026-04-20 18:19 | 45.90479 | 11.74448 | 23607 ft | 421 kts | 311° |
| 2026-04-20 18:19 | 45.92668 | 11.71698 | 23923 ft | 426 kts | 320° |
| 2026-04-20 18:19 | 45.95225 | 11.69476 | 24212 ft | 433 kts | 329° |
| 2026-04-20 18:20 | 45.98068 | 11.67926 | 24464 ft | 441 kts | 339° |
| 2026-04-20 18:20 | 46.01094 | 11.66983 | 24748 ft | 445 kts | 342° |
| 2026-04-20 18:20 | 46.04069 | 11.66113 | 24964 ft | 445 kts | 343° |
| 2026-04-20 18:20 | 46.07144 | 11.65202 | 25172 ft | 446 kts | 342° |
| 2026-04-20 18:21 | 46.10196 | 11.64289 | 25389 ft | 447 kts | 342° |
| 2026-04-20 18:21 | 46.13252 | 11.63369 | 25588 ft | 448 kts | 342° |
| 2026-04-20 18:21 | 46.16272 | 11.62463 | 25783 ft | 449 kts | 342° |
| 2026-04-20 18:21 | 46.19340 | 11.61546 | 25912 ft | 451 kts | 342° |
| 2026-04-20 18:22 | 46.22418 | 11.60632 | 26141 ft | 450 kts | 342° |
| 2026-04-20 18:22 | 46.25487 | 11.59721 | 26381 ft | 448 kts | 342° |
| 2026-04-20 18:22 | 46.28529 | 11.58817 | 26573 ft | 446 kts | 341° |
| 2026-04-20 18:22 | 46.31597 | 11.57898 | 26719 ft | 443 kts | 341° |
| 2026-04-20 18:23 | 46.34583 | 11.57001 | 26866 ft | 442 kts | 341° |
| 2026-04-20 18:23 | 46.37600 | 11.56087 | 27028 ft | 443 kts | 341° |
| 2026-04-20 18:23 | 46.40616 | 11.55171 | 27265 ft | 442 kts | 341° |
| 2026-04-20 18:23 | 46.43626 | 11.54258 | 27497 ft | 441 kts | 341° |
| 2026-04-20 18:24 | 46.46641 | 11.53346 | 27743 ft | 441 kts | 341° |
| 2026-04-20 18:24 | 46.49604 | 11.52451 | 27992 ft | 440 kts | 341° |
| 2026-04-20 18:24 | 46.52607 | 11.51546 | 28262 ft | 439 kts | 341° |
| 2026-04-20 18:24 | 46.55603 | 11.50641 | 28565 ft | 437 kts | 341° |
| 2026-04-20 18:25 | 46.58585 | 11.49742 | 28951 ft | 433 kts | 341° |
| 2026-04-20 18:25 | 46.61500 | 11.48857 | 29214 ft | 432 kts | 340° |
| 2026-04-20 18:25 | 46.64466 | 11.47950 | 29427 ft | 432 kts | 340° |
| 2026-04-20 18:25 | 46.67414 | 11.47049 | 29615 ft | 433 kts | 340° |
| 2026-04-20 18:26 | 46.70335 | 11.46158 | 29829 ft | 433 kts | 340° |
| 2026-04-20 18:26 | 46.73289 | 11.45255 | 30112 ft | 433 kts | 340° |
| 2026-04-20 18:26 | 46.75244 | 11.44656 | 30294 ft | 433 kts | 341° |
| 2026-04-20 18:26 | 46.78186 | 11.43757 | 30487 ft | 432 kts | 341° |
| 2026-04-20 18:27 | 46.81134 | 11.42859 | 30680 ft | 431 kts | 341° |
| 2026-04-20 18:27 | 46.85037 | 11.41670 | 30961 ft | 433 kts | 341° |
| 2026-04-20 18:27 | 46.87033 | 11.41059 | 31147 ft | 433 kts | 341° |
| 2026-04-20 18:27 | 46.89985 | 11.40153 | 31389 ft | 432 kts | 341° |
| 2026-04-20 18:28 | 46.92897 | 11.39256 | 31622 ft | 433 kts | 342° |
| 2026-04-20 18:28 | 46.95846 | 11.38347 | 31855 ft | 433 kts | 342° |
| 2026-04-20 18:28 | 46.98859 | 11.37709 | 32083 ft | 440 kts | 349° |
| 2026-04-20 18:28 | 47.01909 | 11.37620 | 32287 ft | 443 kts | 353° |
| 2026-04-20 18:29 | 47.04997 | 11.37592 | 32563 ft | 443 kts | 353° |
| 2026-04-20 18:29 | 47.08087 | 11.37569 | 32826 ft | 443 kts | 353° |
| 2026-04-20 18:29 | 47.11158 | 11.37545 | 33004 ft | 441 kts | 353° |
| 2026-04-20 18:29 | 47.14236 | 11.37518 | 33214 ft | 442 kts | 353° |
| 2026-04-20 18:30 | 47.17281 | 11.37489 | 33462 ft | 441 kts | 353° |
| 2026-04-20 18:30 | 47.20348 | 11.37457 | 33653 ft | 441 kts | 353° |
| 2026-04-20 18:30 | 47.23434 | 11.37421 | 33911 ft | 440 kts | 353° |
| 2026-04-20 18:30 | 47.26501 | 11.37384 | 34157 ft | 440 kts | 353° |
| 2026-04-20 18:31 | 47.29558 | 11.37351 | 34359 ft | 439 kts | 353° |
| 2026-04-20 18:31 | 47.32580 | 11.37324 | 34564 ft | 439 kts | 354° |
| 2026-04-20 18:31 | 47.35644 | 11.37299 | 34784 ft | 439 kts | 354° |
| 2026-04-20 18:31 | 47.38708 | 11.37273 | 35007 ft | 439 kts | 354° |
| 2026-04-20 18:32 | 47.41786 | 11.37243 | 35230 ft | 439 kts | 354° |
| 2026-04-20 18:32 | 47.44807 | 11.37215 | 35438 ft | 440 kts | 354° |
| 2026-04-20 18:32 | 47.47866 | 11.37188 | 35650 ft | 440 kts | 354° |
| 2026-04-20 18:32 | 47.50939 | 11.37162 | 35842 ft | 440 kts | 354° |
| 2026-04-20 18:33 | 47.54004 | 11.37136 | 36027 ft | 441 kts | 354° |
| 2026-04-20 18:33 | 47.57078 | 11.37108 | 36216 ft | 441 kts | 354° |
| 2026-04-20 18:33 | 47.60152 | 11.37075 | 36389 ft | 441 kts | 354° |
| 2026-04-20 18:33 | 47.63186 | 11.37042 | 36563 ft | 441 kts | 354° |
| 2026-04-20 18:34 | 47.66255 | 11.37012 | 36737 ft | 441 kts | 354° |
| 2026-04-20 18:34 | 47.69336 | 11.36980 | 36904 ft | 442 kts | 354° |
| 2026-04-20 18:34 | 47.72417 | 11.36947 | 37062 ft | 442 kts | 354° |
| 2026-04-20 18:34 | 47.75504 | 11.36915 | 37203 ft | 443 kts | 354° |
| 2026-04-20 18:35 | 47.78589 | 11.36883 | 37359 ft | 443 kts | 354° |
| 2026-04-20 18:35 | 47.81683 | 11.36852 | 37507 ft | 443 kts | 354° |
| 2026-04-20 18:35 | 47.84764 | 11.36823 | 37659 ft | 444 kts | 354° |
| 2026-04-20 18:35 | 47.87862 | 11.36808 | 37817 ft | 444 kts | 355° |
| 2026-04-20 18:36 | 47.91007 | 11.36850 | 38000 ft | 445 kts | 356° |
| 2026-04-20 18:36 | 47.94066 | 11.36933 | 38082 ft | 446 kts | 356° |
| 2026-04-20 18:36 | 48.00298 | 11.37135 | 38086 ft | 446 kts | 356° |
| 2026-04-20 18:37 | 48.06583 | 11.37294 | 38085 ft | 446 kts | 356° |
| 2026-04-20 18:37 | 48.12726 | 11.37429 | 38086 ft | 446 kts | 356° |
| 2026-04-20 18:38 | 48.18903 | 11.37556 | 38086 ft | 445 kts | 356° |
| 2026-04-20 18:38 | 48.25121 | 11.37692 | 38093 ft | 445 kts | 356° |
| 2026-04-20 18:39 | 48.31310 | 11.37834 | 38103 ft | 446 kts | 356° |
| 2026-04-20 18:39 | 48.37524 | 11.37974 | 38112 ft | 446 kts | 356° |
| 2026-04-20 18:40 | 48.43756 | 11.38110 | 38115 ft | 446 kts | 356° |
| 2026-04-20 18:40 | 48.49964 | 11.38254 | 38117 ft | 446 kts | 356° |
| 2026-04-20 18:41 | 48.56126 | 11.38401 | 38119 ft | 445 kts | 356° |
| 2026-04-20 18:41 | 48.62354 | 11.38546 | 38115 ft | 445 kts | 356° |
| 2026-04-20 18:42 | 48.68514 | 11.38684 | 38114 ft | 445 kts | 356° |
| 2026-04-20 18:42 | 48.74727 | 11.38821 | 38117 ft | 445 kts | 356° |
| 2026-04-20 18:43 | 48.80929 | 11.38965 | 38115 ft | 445 kts | 356° |
| 2026-04-20 18:43 | 48.87126 | 11.39112 | 38125 ft | 445 kts | 356° |
| 2026-04-20 18:44 | 48.93293 | 11.39249 | 38131 ft | 445 kts | 356° |
| 2026-04-20 18:44 | 48.99500 | 11.39386 | 38139 ft | 445 kts | 357° |
| 2026-04-20 18:45 | 49.05682 | 11.39545 | 38135 ft | 445 kts | 357° |
| 2026-04-20 18:45 | 49.11894 | 11.39702 | 38125 ft | 445 kts | 357° |
| 2026-04-20 18:46 | 49.18102 | 11.39839 | 38138 ft | 446 kts | 357° |
| 2026-04-20 18:46 | 49.24315 | 11.39976 | 38137 ft | 446 kts | 356° |
| 2026-04-20 18:47 | 49.30440 | 11.39373 | 38143 ft | 443 kts | 352° |
| 2026-04-20 18:47 | 49.36602 | 11.38515 | 38140 ft | 443 kts | 351° |
| 2026-04-20 18:48 | 49.42728 | 11.37638 | 38138 ft | 444 kts | 351° |
| 2026-04-20 18:48 | 49.48900 | 11.36785 | 38136 ft | 444 kts | 352° |
| 2026-04-20 18:49 | 49.55061 | 11.35952 | 38135 ft | 444 kts | 352° |
| 2026-04-20 18:49 | 49.61196 | 11.35154 | 38136 ft | 445 kts | 352° |
| 2026-04-20 18:50 | 49.67388 | 11.34398 | 38137 ft | 445 kts | 352° |
| 2026-04-20 18:50 | 49.73544 | 11.33631 | 38141 ft | 445 kts | 352° |
| 2026-04-20 18:51 | 49.79706 | 11.32843 | 38140 ft | 446 kts | 352° |
| 2026-04-20 18:51 | 49.85929 | 11.32054 | 38142 ft | 446 kts | 352° |
| 2026-04-20 18:52 | 49.92081 | 11.31266 | 38146 ft | 446 kts | 352° |
| 2026-04-20 18:52 | 49.98284 | 11.30467 | 38145 ft | 447 kts | 353° |
| 2026-04-20 18:53 | 50.04496 | 11.29673 | 38144 ft | 447 kts | 353° |
| 2026-04-20 18:53 | 50.10719 | 11.28877 | 38143 ft | 447 kts | 353° |
| 2026-04-20 18:54 | 50.16896 | 11.28073 | 38143 ft | 447 kts | 353° |
| 2026-04-20 18:54 | 50.23108 | 11.27255 | 38146 ft | 448 kts | 353° |
| 2026-04-20 18:55 | 50.29308 | 11.26466 | 38145 ft | 448 kts | 353° |
| 2026-04-20 18:55 | 50.35532 | 11.25673 | 38144 ft | 448 kts | 353° |
| 2026-04-20 18:56 | 50.41757 | 11.24864 | 38149 ft | 448 kts | 353° |
| 2026-04-20 18:56 | 50.47998 | 11.24039 | 38148 ft | 449 kts | 353° |
| 2026-04-20 18:57 | 50.54205 | 11.23219 | 38154 ft | 449 kts | 353° |
| 2026-04-20 18:57 | 50.60447 | 11.22401 | 38156 ft | 449 kts | 353° |
| 2026-04-20 18:58 | 50.66643 | 11.21599 | 38153 ft | 449 kts | 353° |
| 2026-04-20 18:58 | 50.72884 | 11.20781 | 38159 ft | 448 kts | 353° |
| 2026-04-20 18:59 | 50.79076 | 11.19960 | 38168 ft | 448 kts | 353° |
| 2026-04-20 18:59 | 50.85314 | 11.19124 | 38170 ft | 448 kts | 354° |
| 2026-04-20 19:00 | 50.91503 | 11.18299 | 38172 ft | 448 kts | 354° |
| 2026-04-20 19:00 | 50.97765 | 11.17462 | 38175 ft | 448 kts | 354° |
| 2026-04-20 19:01 | 51.03947 | 11.16642 | 38173 ft | 448 kts | 354° |
| 2026-04-20 19:01 | 51.10169 | 11.15804 | 38168 ft | 448 kts | 354° |
| 2026-04-20 19:02 | 51.16405 | 11.14963 | 38179 ft | 448 kts | 354° |
| 2026-04-20 19:02 | 51.22592 | 11.14128 | 38168 ft | 448 kts | 354° |
| 2026-04-20 19:03 | 51.27770 | 11.13352 | 38169 ft | 448 kts | 353° |
| 2026-04-20 19:03 | 51.33983 | 11.12186 | 38163 ft | 448 kts | 352° |
| 2026-04-20 19:04 | 51.40161 | 11.10963 | 38167 ft | 448 kts | 352° |
| 2026-04-20 19:04 | 51.46340 | 11.09807 | 38172 ft | 449 kts | 353° |
| 2026-04-20 19:05 | 51.52552 | 11.08637 | 38175 ft | 449 kts | 349° |
| 2026-04-20 19:05 | 51.55529 | 11.07170 | 38175 ft | 447 kts | 335° |
| 2026-04-20 19:05 | 51.58358 | 11.05062 | 38176 ft | 447 kts | 335° |
| 2026-04-20 19:06 | 51.63975 | 11.00830 | 38175 ft | 448 kts | 335° |
| 2026-04-20 19:06 | 51.69637 | 10.96564 | 38181 ft | 448 kts | 335° |
| 2026-04-20 19:07 | 51.75268 | 10.92307 | 38185 ft | 449 kts | 335° |
| 2026-04-20 19:07 | 51.80936 | 10.88001 | 38188 ft | 449 kts | 335° |
| 2026-04-20 19:08 | 51.83757 | 10.85854 | 37876 ft | 447 kts | 335° |
| 2026-04-20 19:08 | 51.89396 | 10.81554 | 36182 ft | 448 kts | 335° |
| 2026-04-20 19:08 | 51.92191 | 10.79417 | 35340 ft | 448 kts | 335° |
| 2026-04-20 19:09 | 51.95026 | 10.77243 | 34485 ft | 449 kts | 335° |
| 2026-04-20 19:09 | 51.97829 | 10.75093 | 33526 ft | 450 kts | 335° |
| 2026-04-20 19:09 | 52.00664 | 10.72919 | 32465 ft | 451 kts | 335° |
| 2026-04-20 19:09 | 52.03507 | 10.70739 | 31417 ft | 452 kts | 336° |
| 2026-04-20 19:10 | 52.06356 | 10.68551 | 30336 ft | 452 kts | 336° |
| 2026-04-20 19:10 | 52.09210 | 10.66356 | 29496 ft | 454 kts | 336° |
| 2026-04-20 19:10 | 52.12035 | 10.64177 | 28835 ft | 456 kts | 336° |
| 2026-04-20 19:10 | 52.14913 | 10.61948 | 28201 ft | 458 kts | 336° |
| 2026-04-20 19:11 | 52.17797 | 10.59712 | 27563 ft | 459 kts | 336° |
| 2026-04-20 19:11 | 52.20686 | 10.57470 | 26954 ft | 460 kts | 336° |
| 2026-04-20 19:11 | 52.23571 | 10.55230 | 26131 ft | 457 kts | 336° |
| 2026-04-20 19:11 | 52.26409 | 10.53025 | 25488 ft | 444 kts | 336° |
| 2026-04-20 19:12 | 52.29172 | 10.50875 | 24867 ft | 434 kts | 336° |
| 2026-04-20 19:12 | 52.31873 | 10.48766 | 24263 ft | 425 kts | 336° |
| 2026-04-20 19:12 | 52.34521 | 10.46695 | 23649 ft | 417 kts | 336° |
| 2026-04-20 19:12 | 52.37127 | 10.44657 | 22942 ft | 411 kts | 336° |
| 2026-04-20 19:13 | 52.39691 | 10.42649 | 22253 ft | 406 kts | 336° |
| 2026-04-20 19:13 | 52.42237 | 10.40654 | 21577 ft | 402 kts | 336° |
| 2026-04-20 19:13 | 52.44718 | 10.38706 | 20924 ft | 398 kts | 336° |
| 2026-04-20 19:13 | 52.47205 | 10.36756 | 20318 ft | 394 kts | 337° |
| 2026-04-20 19:14 | 52.49670 | 10.34822 | 19900 ft | 386 kts | 336° |
| 2026-04-20 19:14 | 52.52068 | 10.32933 | 19533 ft | 377 kts | 337° |
| 2026-04-20 19:14 | 52.54386 | 10.31104 | 19163 ft | 372 kts | 337° |
| 2026-04-20 19:14 | 52.56722 | 10.29257 | 18792 ft | 370 kts | 336° |
| 2026-04-20 19:15 | 52.59041 | 10.27421 | 18422 ft | 368 kts | 336° |
| 2026-04-20 19:15 | 52.61346 | 10.25601 | 18002 ft | 366 kts | 337° |
| 2026-04-20 19:15 | 52.63607 | 10.23815 | 17584 ft | 364 kts | 337° |
| 2026-04-20 19:15 | 52.65885 | 10.22007 | 17182 ft | 363 kts | 337° |
| 2026-04-20 19:16 | 52.68159 | 10.20200 | 16782 ft | 361 kts | 337° |
| 2026-04-20 19:16 | 52.70428 | 10.18394 | 16389 ft | 360 kts | 337° |
| 2026-04-20 19:16 | 52.72677 | 10.16598 | 15993 ft | 358 kts | 337° |
| 2026-04-20 19:16 | 52.74919 | 10.14811 | 15607 ft | 357 kts | 337° |
| 2026-04-20 19:17 | 52.77164 | 10.13027 | 15193 ft | 356 kts | 337° |
| 2026-04-20 19:17 | 52.79364 | 10.11277 | 14772 ft | 354 kts | 337° |
| 2026-04-20 19:17 | 52.81583 | 10.09503 | 14334 ft | 352 kts | 337° |
| 2026-04-20 19:17 | 52.83796 | 10.07730 | 13926 ft | 351 kts | 337° |
| 2026-04-20 19:18 | 52.85963 | 10.05990 | 13464 ft | 349 kts | 337° |
| 2026-04-20 19:18 | 52.88149 | 10.04237 | 13003 ft | 347 kts | 337° |
| 2026-04-20 19:18 | 52.90299 | 10.02509 | 12692 ft | 337 kts | 337° |
| 2026-04-20 19:18 | 52.92361 | 10.00847 | 12682 ft | 319 kts | 337° |
| 2026-04-20 19:19 | 52.94308 | 9.99274 | 12681 ft | 305 kts | 338° |
| 2026-04-20 19:19 | 52.96202 | 9.97747 | 12681 ft | 301 kts | 338° |
| 2026-04-20 19:19 | 52.98082 | 9.96235 | 12678 ft | 300 kts | 338° |
| 2026-04-20 19:19 | 52.99945 | 9.94731 | 12421 ft | 297 kts | 338° |
| 2026-04-20 19:20 | 53.01778 | 9.93248 | 12041 ft | 296 kts | 338° |
| 2026-04-20 19:20 | 53.03629 | 9.91751 | 11661 ft | 294 kts | 338° |
| 2026-04-20 19:20 | 53.05469 | 9.90286 | 11286 ft | 292 kts | 338° |
| 2026-04-20 19:20 | 53.07303 | 9.88841 | 10919 ft | 291 kts | 339° |
| 2026-04-20 19:21 | 53.09113 | 9.87422 | 10539 ft | 289 kts | 339° |
| 2026-04-20 19:21 | 53.10932 | 9.85995 | 10173 ft | 288 kts | 339° |
| 2026-04-20 19:21 | 53.12749 | 9.84565 | 9774 ft | 287 kts | 338° |
| 2026-04-20 19:21 | 53.14527 | 9.83166 | 9361 ft | 285 kts | 338° |
| 2026-04-20 19:22 | 53.16321 | 9.81749 | 8944 ft | 283 kts | 338° |
| 2026-04-20 19:22 | 53.18096 | 9.80343 | 8521 ft | 281 kts | 338° |
| 2026-04-20 19:22 | 53.19865 | 9.78945 | 8116 ft | 280 kts | 338° |
| 2026-04-20 19:22 | 53.21623 | 9.77554 | 7696 ft | 278 kts | 338° |
| 2026-04-20 19:23 | 53.23368 | 9.76169 | 7280 ft | 276 kts | 338° |
| 2026-04-20 19:23 | 53.25079 | 9.74807 | 6884 ft | 275 kts | 337° |
| 2026-04-20 19:23 | 53.26800 | 9.73437 | 6594 ft | 273 kts | 337° |
| 2026-04-20 19:23 | 53.28518 | 9.72072 | 6356 ft | 272 kts | 338° |
| 2026-04-20 19:24 | 53.30175 | 9.70750 | 6324 ft | 253 kts | 338° |
| 2026-04-20 19:24 | 53.31701 | 9.69528 | 6255 ft | 241 kts | 338° |
| 2026-04-20 19:24 | 53.33210 | 9.68321 | 6033 ft | 239 kts | 338° |
| 2026-04-20 19:24 | 53.34715 | 9.67119 | 5824 ft | 239 kts | 338° |
| 2026-04-20 19:25 | 53.36214 | 9.65923 | 5615 ft | 238 kts | 338° |
| 2026-04-20 19:25 | 53.37709 | 9.64726 | 5408 ft | 237 kts | 338° |
| 2026-04-20 19:25 | 53.39249 | 9.63907 | 5202 ft | 229 kts | 2° |
| 2026-04-20 19:25 | 53.40779 | 9.64369 | 5007 ft | 223 kts | 21° |
| 2026-04-20 19:26 | 53.42225 | 9.65236 | 4796 ft | 222 kts | 24° |
| 2026-04-20 19:26 | 53.43671 | 9.66156 | 4778 ft | 222 kts | 24° |
| 2026-04-20 19:26 | 53.45122 | 9.67080 | 4773 ft | 223 kts | 24° |
| 2026-04-20 19:26 | 53.46572 | 9.68000 | 4755 ft | 223 kts | 24° |
| 2026-04-20 19:27 | 53.48003 | 9.69008 | 4469 ft | 222 kts | 36° |
| 2026-04-20 19:27 | 53.49092 | 9.70762 | 4148 ft | 215 kts | 52° |
| 2026-04-20 19:27 | 53.50036 | 9.72661 | 3853 ft | 213 kts | 52° |
| 2026-04-20 19:27 | 53.50985 | 9.74568 | 3560 ft | 211 kts | 52° |
| 2026-04-20 19:28 | 53.51920 | 9.76441 | 3269 ft | 207 kts | 53° |
| 2026-04-20 19:28 | 53.52841 | 9.78288 | 2981 ft | 204 kts | 53° |
| 2026-04-20 19:28 | 53.53747 | 9.80105 | 2700 ft | 200 kts | 54° |
| 2026-04-20 19:28 | 53.54619 | 9.81855 | 2431 ft | 196 kts | 54° |
| 2026-04-20 19:29 | 53.55464 | 9.83550 | 2150 ft | 179 kts | 53° |
| 2026-04-20 19:29 | 53.56216 | 9.85058 | 1947 ft | 157 kts | 54° |
| 2026-04-20 19:29 | 53.56878 | 9.86388 | 1712 ft | 140 kts | 54° |
| 2026-04-20 19:29 | 53.57466 | 9.87592 | 1502 ft | 130 kts | 54° |
| 2026-04-20 19:30 | 53.58037 | 9.88790 | 1323 ft | 132 kts | 52° |
| 2026-04-20 19:30 | 53.58643 | 9.89953 | 1163 ft | 131 kts | 50° |
| 2026-04-20 19:30 | 53.59227 | 9.91117 | 978 ft | 132 kts | 52° |
| 2026-04-20 19:30 | 53.59819 | 9.92328 | 744 ft | 134 kts | 49° |
| 2026-04-20 19:31 | 53.60412 | 9.93509 | 581 ft | 131 kts | 50° |
| 2026-04-20 19:31 | 53.60992 | 9.94679 | 390 ft | 134 kts | 50° |
| 2026-04-20 19:31 | 53.61595 | 9.95899 | 197 ft | 135 kts | 51° |
| 2026-04-20 19:31 | 53.62188 | 9.97103 | 49 ft | 132 kts | 50° |
| 2026-04-20 19:32 | 53.62694 | 9.98126 | 42 ft | 88 kts | 50° |
| 2026-04-20 19:32 | 53.62998 | 9.98740 | 45 ft | 56 kts | 50° |
| 2026-04-20 19:32 | 53.63222 | 9.99197 | 47 ft | 44 kts | 51° |
| 2026-04-20 19:32 | 53.63287 | 9.99508 | 47 ft | 16 kts | 99° |
| 2026-04-20 19:33 | 53.63276 | 9.99665 | 49 ft | 4 kts | 97° |
| 2026-04-20 19:33 | 53.63272 | 9.99727 | 49 ft | 6 kts | 91° |
| 2026-04-20 19:33 | 53.63313 | 9.99832 | 47 ft | 16 kts | 50° |
| 2026-04-20 19:33 | 53.63392 | 9.99990 | 49 ft | 19 kts | 51° |
| 2026-04-20 19:34 | 53.63429 | 10.00112 | 46 ft | 10 kts | 95° |
| 2026-04-20 19:34 | 53.63371 | 10.00161 | 45 ft | 10 kts | 174° |
| 2026-04-20 19:34 | 53.63304 | 10.00168 | 46 ft | 9 kts | 175° |
| 2026-04-20 19:34 | 53.63240 | 10.00176 | 49 ft | 9 kts | 176° |
| 2026-04-20 19:35 | 53.63177 | 10.00184 | 49 ft | 9 kts | 175° |
| 2026-04-20 19:35 | 53.63122 | 10.00206 | 46 ft | 8 kts | 140° |
| 2026-04-20 19:35 | 53.63110 | 10.00294 | 49 ft | 9 kts | 88° |
| 2026-04-20 19:35 | 53.63112 | 10.00361 | 49 ft | 2 kts | 87° |
| 2026-04-20 19:36 | 53.63112 | 10.00374 | 49 ft | 1 kts | 87° |